Time;durP1;ratioP1;P1;durP2;ratioP2;P2;SDS_P1;SDS_P2;PMS_P1;PMS_P2;Temp;Humidity;BMP_temperature;BMP_pressure;BME280_temperature;BME280_humidity;BME280_pressure;Samples;Min_cycle;Max_cycle;Signal;HPM_P1;HPM_P2
2023/10/02 00:00:33;;;;;;;12.48;6.55;;;;;;;;;;8220815;28;20145;-61
2023/10/02 00:04:37;;;;;;;12.90;7.10;;;;;;;;;;8225428;28;20056;-61
2023/10/02 00:08:48;;;;;;;11.35;6.38;;;;;;;;;;8220160;28;20498;-62
2023/10/02 00:12:58;;;;;;;14.10;7.07;;;;;;;;;;8220005;28;20030;-61
2023/10/02 00:16:59;;;;;;;14.07;7.53;;;;;;;;;;8221066;28;20038;-61
2023/10/02 00:21:17;;;;;;;12.75;7.00;;;;;;;;;;8220955;28;20835;-61
2023/10/02 00:25:19;;;;;;;14.07;7.47;;;;;;;;;;8219240;28;20052;-62
2023/10/02 00:29:21;;;;;;;12.98;7.03;;;;;;;;;;8221786;28;20093;-61
2023/10/02 00:33:27;;;;;;;13.10;6.75;;;;;;;;;;8224453;28;20035;-61
2023/10/02 00:37:43;;;;;;;12.70;6.68;;;;;;;;;;8227339;28;20503;-61
2023/10/02 00:42:10;;;;;;;12.68;6.53;;;;;;;;;;8223413;28;20092;-61
2023/10/02 00:46:04;;;;;;;12.80;6.43;;;;;;;;;;8225178;28;20038;-61
2023/10/02 00:50:07;;;;;;;10.93;6.13;;;;;;;;;;8231771;28;20030;-61
2023/10/02 00:54:23;;;;;;;14.75;7.57;;;;;;;;;;8227135;28;20026;-61
2023/10/02 00:58:24;;;;;;;14.05;6.82;;;;;;;;;;8223065;28;20033;-61
2023/10/02 01:02:25;;;;;;;13.23;6.88;;;;;;;;;;8221721;28;20049;-61
2023/10/02 01:06:25;;;;;;;13.32;6.63;;;;;;;;;;8225884;28;20034;-61
2023/10/02 01:10:32;;;;;;;12.47;6.60;;;;;;;;;;8222616;28;20034;-62
2023/10/02 01:14:51;;;;;;;13.63;6.65;;;;;;;;;;8227003;28;20030;-61
2023/10/02 01:18:52;;;;;;;10.85;6.30;;;;;;;;;;8223882;28;20490;-61
2023/10/02 01:22:55;;;;;;;12.23;6.05;;;;;;;;;;8222897;28;20034;-62
2023/10/02 01:26:57;;;;;;;12.60;6.90;;;;;;;;;;8225993;28;20037;-61
2023/10/02 01:31:31;;;;;;;11.55;6.13;;;;;;;;;;8226270;28;20032;-62
2023/10/02 01:35:19;;;;;;;9.95;5.72;;;;;;;;;;8224297;28;20643;-61
2023/10/02 01:39:21;;;;;;;11.73;6.22;;;;;;;;;;8226905;28;20893;-61
2023/10/02 01:43:22;;;;;;;12.65;6.22;;;;;;;;;;8221171;28;20092;-62
2023/10/02 01:47:24;;;;;;;12.13;6.15;;;;;;;;;;8224707;28;20941;-61
2023/10/02 01:51:27;;;;;;;11.75;6.20;;;;;;;;;;8223521;28;20141;-61
2023/10/02 01:55:29;;;;;;;10.77;5.80;;;;;;;;;;8223638;28;20037;-61
2023/10/02 01:59:29;;;;;;;10.32;5.75;;;;;;;;;;8221419;28;20088;-61
2023/10/02 02:03:29;;;;;;;10.87;5.67;;;;;;;;;;8222901;28;20152;-61
2023/10/02 02:07:30;;;;;;;14.80;6.63;;;;;;;;;;8222652;28;20038;-65
2023/10/02 02:11:30;;;;;;;10.90;5.88;;;;;;;;;;8223994;28;20915;-61
2023/10/02 02:15:32;;;;;;;10.87;5.97;;;;;;;;;;8225347;28;20036;-61
2023/10/02 02:19:32;;;;;;;12.02;6.40;;;;;;;;;;8223954;28;20145;-61
2023/10/02 02:23:32;;;;;;;10.82;5.47;;;;;;;;;;8224323;28;20080;-61
2023/10/02 02:27:32;;;;;;;11.50;5.85;;;;;;;;;;8221513;28;20036;-61
2023/10/02 02:31:32;;;;;;;11.40;6.20;;;;;;;;;;8223743;28;20096;-61
2023/10/02 02:35:35;;;;;;;14.30;6.27;;;;;;;;;;8223019;28;20024;-61
2023/10/02 02:39:37;;;;;;;9.07;5.60;;;;;;;;;;8224581;28;20033;-62
2023/10/02 02:43:38;;;;;;;11.27;5.72;;;;;;;;;;8218573;28;20018;-61
2023/10/02 02:47:51;;;;;;;13.13;6.25;;;;;;;;;;8223227;28;20108;-63
2023/10/02 02:51:55;;;;;;;12.80;6.47;;;;;;;;;;8220051;28;20038;-61
2023/10/02 02:56:15;;;;;;;10.57;5.88;;;;;;;;;;8224097;28;20048;-61
2023/10/02 03:00:31;;;;;;;11.23;6.40;;;;;;;;;;8221086;28;20029;-61
2023/10/02 03:04:35;;;;;;;11.48;5.85;;;;;;;;;;8220535;28;20072;-62
2023/10/02 03:08:38;;;;;;;11.32;6.38;;;;;;;;;;8224032;28;20029;-61
2023/10/02 03:12:51;;;;;;;13.00;6.40;;;;;;;;;;8219609;28;20040;-62
2023/10/02 03:16:51;;;;;;;12.07;5.57;;;;;;;;;;8219384;28;20036;-61
2023/10/02 03:20:52;;;;;;;8.52;5.25;;;;;;;;;;8222404;28;20026;-62
2023/10/02 03:24:54;;;;;;;10.93;5.43;;;;;;;;;;8222092;28;20030;-62
2023/10/02 03:29:00;;;;;;;11.90;5.95;;;;;;;;;;8219899;28;20502;-61
2023/10/02 03:33:16;;;;;;;12.07;6.38;;;;;;;;;;8220541;28;20549;-61
2023/10/02 03:37:21;;;;;;;10.20;5.30;;;;;;;;;;8220446;28;20029;-61
2023/10/02 03:41:44;;;;;;;9.88;5.57;;;;;;;;;;8221271;28;20030;-60
2023/10/02 03:45:44;;;;;;;11.55;6.05;;;;;;;;;;8218005;28;20117;-62
2023/10/02 03:49:44;;;;;;;12.52;5.88;;;;;;;;;;8220213;28;20030;-61
2023/10/02 03:53:44;;;;;;;10.20;5.78;;;;;;;;;;8221425;28;20037;-62
2023/10/02 03:57:49;;;;;;;11.98;6.43;;;;;;;;;;8222878;28;20032;-61
2023/10/02 04:01:50;;;;;;;13.75;6.28;;;;;;;;;;8219713;28;20066;-61
2023/10/02 04:05:50;;;;;;;11.77;5.60;;;;;;;;;;8226659;28;20022;-61
2023/10/02 04:09:51;;;;;;;10.30;5.68;;;;;;;;;;8220318;28;20687;-62
2023/10/02 04:13:54;;;;;;;11.30;6.07;;;;;;;;;;8217899;28;20040;-62
2023/10/02 04:17:55;;;;;;;14.52;6.57;;;;;;;;;;8218303;28;20828;-62
2023/10/02 04:21:56;;;;;;;12.23;5.85;;;;;;;;;;8218026;28;20169;-61
2023/10/02 04:25:56;;;;;;;11.90;6.00;;;;;;;;;;8221256;28;21162;-62
2023/10/02 04:30:37;;;;;;;13.48;6.10;;;;;;;;;;8220678;28;20021;-61
2023/10/02 04:38:49;;;;;;;13.63;5.78;;;;;;;;;;8219149;28;20022;-61
2023/10/02 04:43:09;;;;;;;13.05;6.90;;;;;;;;;;8216751;28;20045;-61
2023/10/02 04:47:17;;;;;;;13.38;6.88;;;;;;;;;;8219890;28;20132;-61
2023/10/02 04:51:17;;;;;;;14.93;6.80;;;;;;;;;;8215431;28;20018;-62
2023/10/02 04:55:24;;;;;;;12.50;6.55;;;;;;;;;;8220225;28;21136;-62
2023/10/02 04:59:50;;;;;;;13.70;6.05;;;;;;;;;;8215752;28;20026;-61
2023/10/02 05:03:53;;;;;;;13.15;6.13;;;;;;;;;;8218347;28;20140;-61
2023/10/02 05:07:53;;;;;;;12.80;5.90;;;;;;;;;;8219021;28;20018;-61
2023/10/02 05:11:56;;;;;;;13.23;6.32;;;;;;;;;;8219736;28;20924;-61
2023/10/02 05:16:12;;;;;;;10.68;6.00;;;;;;;;;;8221963;28;20080;-61
2023/10/02 05:20:15;;;;;;;10.88;5.85;;;;;;;;;;8223208;28;20485;-61
2023/10/02 05:24:16;;;;;;;12.88;6.80;;;;;;;;;;8225568;28;20076;-61
2023/10/02 05:28:17;;;;;;;11.60;5.90;;;;;;;;;;8225539;28;20092;-61
2023/10/02 05:32:23;;;;;;;13.97;6.33;;;;;;;;;;8225170;28;20047;-61
2023/10/02 05:36:24;;;;;;;12.02;6.38;;;;;;;;;;8223683;28;20053;-61
2023/10/02 05:44:26;;;;;;;9.85;5.95;;;;;;;;;;8218253;28;20141;-62
2023/10/02 05:52:27;;;;;;;12.15;6.20;;;;;;;;;;8214132;28;20029;-61
2023/10/02 05:56:27;;;;;;;11.30;6.10;;;;;;;;;;8211823;28;20041;-61
2023/10/02 06:00:35;;;;;;;11.63;5.90;;;;;;;;;;8215309;28;20038;-61
2023/10/02 06:04:35;;;;;;;11.43;5.57;;;;;;;;;;8212947;28;20351;-61
2023/10/02 06:08:40;;;;;;;10.65;5.97;;;;;;;;;;8217290;28;20038;-61
2023/10/02 06:12:43;;;;;;;11.63;6.32;;;;;;;;;;8212574;28;20577;-62
2023/10/02 06:16:47;;;;;;;11.45;5.88;;;;;;;;;;8212796;28;20069;-61
2023/10/02 06:20:58;;;;;;;;;;;;;;;;;;8215072;28;20555;-62
2023/10/02 06:24:58;;;;;;;11.52;6.03;;;;;;;;;;8214956;28;19913;-62
2023/10/02 06:29:16;;;;;;;12.13;5.88;;;;;;;;;;8216602;28;20030;-61
2023/10/02 06:33:17;;;;;;;11.23;6.10;;;;;;;;;;8214368;28;20045;-61
2023/10/02 06:37:19;;;;;;;13.18;6.50;;;;;;;;;;8210851;28;20138;-61
2023/10/02 06:41:19;;;;;;;11.82;6.72;;;;;;;;;;8212275;28;20026;-62
2023/10/02 06:45:25;;;;;;;12.90;7.17;;;;;;;;;;8209620;28;20022;-62
2023/10/02 06:49:25;;;;;;;13.52;7.45;;;;;;;;;;8212995;28;20026;-61
2023/10/02 06:53:25;;;;;;;13.00;7.50;;;;;;;;;;8216650;28;20034;-61
2023/10/02 06:57:25;;;;;;;15.43;8.50;;;;;;;;;;8212856;28;20038;-61
2023/10/02 07:01:27;;;;;;;15.07;7.73;;;;;;;;;;8211657;28;20096;-61
2023/10/02 07:05:32;;;;;;;15.97;8.20;;;;;;;;;;8211288;28;20400;-61
2023/10/02 07:09:36;;;;;;;12.25;7.95;;;;;;;;;;8209617;28;20021;-61
2023/10/02 07:13:50;;;;;;;12.27;8.00;;;;;;;;;;8208994;28;20097;-61
2023/10/02 07:18:00;;;;;;;12.15;7.82;;;;;;;;;;8208783;28;20046;-61
2023/10/02 07:22:01;;;;;;;10.70;7.47;;;;;;;;;;8211550;28;20026;-61
2023/10/02 07:26:04;;;;;;;15.93;8.13;;;;;;;;;;8211340;28;20105;-61
2023/10/02 07:30:04;;;;;;;16.20;8.63;;;;;;;;;;8209775;28;20041;-62
2023/10/02 07:34:08;;;;;;;12.87;8.20;;;;;;;;;;8206518;28;20022;-62
2023/10/02 07:38:09;;;;;;;17.20;8.43;;;;;;;;;;8209806;28;20144;-61
2023/10/02 07:42:13;;;;;;;16.45;9.27;;;;;;;;;;8207076;28;20033;-62
2023/10/02 07:46:16;;;;;;;15.82;8.80;;;;;;;;;;8214841;28;20033;-62
2023/10/02 07:50:23;;;;;;;19.58;8.82;;;;;;;;;;8215602;28;20034;-61
2023/10/02 07:54:41;;;;;;;16.70;9.27;;;;;;;;;;8218635;28;20047;-61
2023/10/02 07:58:54;;;;;;;21.95;9.80;;;;;;;;;;8217289;28;20124;-61
2023/10/02 08:02:54;;;;;;;21.95;9.65;;;;;;;;;;8216115;28;20034;-61
2023/10/02 08:06:54;;;;;;;21.27;9.05;;;;;;;;;;8216012;28;20022;-61
2023/10/02 08:10:54;;;;;;;21.07;10.00;;;;;;;;;;8213955;28;20025;-62
2023/10/02 08:15:02;;;;;;;20.45;9.75;;;;;;;;;;8214880;28;20141;-61
2023/10/02 08:19:10;;;;;;;22.48;10.50;;;;;;;;;;8217269;28;20184;-61
2023/10/02 08:23:24;;;;;;;19.23;10.23;;;;;;;;;;8212323;28;21853;-61
2023/10/02 08:27:24;;;;;;;17.27;9.45;;;;;;;;;;8216862;28;21023;-61
2023/10/02 08:31:27;;;;;;;20.35;10.10;;;;;;;;;;8212527;28;20038;-62
2023/10/02 08:35:28;;;;;;;17.15;9.40;;;;;;;;;;8212772;28;20740;-61
2023/10/02 08:39:28;;;;;;;17.42;9.82;;;;;;;;;;8222687;28;20026;-61
2023/10/02 08:43:32;;;;;;;16.77;8.97;;;;;;;;;;8218210;28;20049;-61
2023/10/02 08:47:35;;;;;;;16.88;9.38;;;;;;;;;;8213788;28;20038;-61
2023/10/02 08:51:36;;;;;;;13.43;9.07;;;;;;;;;;8223922;28;20900;-61
2023/10/02 08:55:51;;;;;;;14.23;8.47;;;;;;;;;;8223079;28;20809;-61
2023/10/02 09:00:09;;;;;;;15.30;8.80;;;;;;;;;;8220031;28;20854;-60
2023/10/02 09:04:22;;;;;;;13.95;8.55;;;;;;;;;;8216449;28;20202;-60
2023/10/02 09:08:22;;;;;;;11.77;8.18;;;;;;;;;;8217184;28;20112;-61
2023/10/02 09:12:22;;;;;;;14.93;8.10;;;;;;;;;;8217811;28;20026;-60
2023/10/02 09:16:29;;;;;;;14.32;8.52;;;;;;;;;;8215505;28;20148;-61
2023/10/02 09:20:38;;;;;;;13.23;9.00;;;;;;;;;;8217738;28;20033;-61
2023/10/02 09:24:40;;;;;;;14.13;8.35;;;;;;;;;;8209691;28;20734;-60
2023/10/02 09:28:41;;;;;;;19.17;8.30;;;;;;;;;;8210222;28;20022;-60
2023/10/02 09:32:49;;;;;;;18.38;8.55;;;;;;;;;;8209332;28;20115;-60
2023/10/02 09:36:52;;;;;;;18.27;8.82;;;;;;;;;;8211523;28;20026;-61
2023/10/02 09:45:08;;;;;;;13.35;8.05;;;;;;;;;;8220202;28;20064;-60
2023/10/02 09:49:19;;;;;;;20.45;9.10;;;;;;;;;;8201573;28;20059;-60
2023/10/02 09:53:24;;;;;;;16.65;8.48;;;;;;;;;;8196778;28;20022;-60
2023/10/02 09:57:31;;;;;;;16.02;8.45;;;;;;;;;;8199450;28;20165;-60
2023/10/02 10:01:34;;;;;;;14.90;8.65;;;;;;;;;;8205163;28;20042;-61
2023/10/02 10:05:45;;;;;;;13.85;8.52;;;;;;;;;;8218772;28;20022;-60
2023/10/02 10:10:07;;;;;;;13.43;7.97;;;;;;;;;;8216481;28;20026;-60
2023/10/02 10:14:35;;;;;;;18.50;8.63;;;;;;;;;;8217142;28;20415;-61
2023/10/02 10:19:26;;;;;;;14.70;8.93;;;;;;;;;;8216479;28;20781;-60
2023/10/02 10:23:18;;;;;;;15.80;8.85;;;;;;;;;;8221065;28;20059;-60
2023/10/02 10:27:37;;;;;;;15.75;8.18;;;;;;;;;;8217225;28;20162;-60
2023/10/02 10:31:38;;;;;;;17.40;8.93;;;;;;;;;;8217963;28;20499;-60
2023/10/02 10:35:51;;;;;;;16.00;9.18;;;;;;;;;;8210452;28;20870;-60
2023/10/02 10:39:53;;;;;;;15.45;8.82;;;;;;;;;;8219444;28;20030;-60
2023/10/02 10:47:54;;;;;;;16.08;9.10;;;;;;;;;;8220014;28;20030;-60
2023/10/02 10:51:56;;;;;;;21.98;9.10;;;;;;;;;;8216133;28;20018;-60
2023/10/02 10:56:03;;;;;;;14.87;9.07;;;;;;;;;;8219949;28;20033;-61
2023/10/02 11:00:23;;;;;;;16.05;9.00;;;;;;;;;;8213805;28;20096;-59
2023/10/02 11:04:27;;;;;;;17.15;8.60;;;;;;;;;;8215402;28;20037;-60
2023/10/02 11:08:28;;;;;;;16.20;8.82;;;;;;;;;;8219620;28;20026;-60
2023/10/02 11:12:38;;;;;;;15.70;9.27;;;;;;;;;;8214544;28;20038;-60
2023/10/02 11:16:38;;;;;;;15.10;8.60;;;;;;;;;;8218621;28;20116;-61
2023/10/02 11:20:38;;;;;;;17.40;9.80;;;;;;;;;;8217203;28;20025;-60
2023/10/02 11:24:39;;;;;;;15.23;8.52;;;;;;;;;;8220161;28;20022;-60
2023/10/02 11:28:40;;;;;;;17.30;8.10;;;;;;;;;;8215338;28;20037;-60
2023/10/02 11:32:54;;;;;;;17.05;8.85;;;;;;;;;;8215455;28;20042;-60
2023/10/02 11:36:54;;;;;;;15.00;9.07;;;;;;;;;;8215748;28;20030;-61
2023/10/02 11:40:55;;;;;;;15.17;9.23;;;;;;;;;;8218561;28;20402;-60
2023/10/02 11:44:55;;;;;;;17.73;9.65;;;;;;;;;;8216095;28;20225;-60
2023/10/02 11:48:56;;;;;;;19.98;9.45;;;;;;;;;;8214338;28;20153;-59
2023/10/02 11:52:56;;;;;;;16.38;9.10;;;;;;;;;;8217641;28;20021;-59
2023/10/02 11:56:57;;;;;;;13.43;8.52;;;;;;;;;;8218881;28;20037;-60
2023/10/02 12:00:57;;;;;;;12.57;7.93;;;;;;;;;;8219838;28;20085;-60
2023/10/02 12:04:58;;;;;;;14.60;8.95;;;;;;;;;;8219155;28;20057;-59
2023/10/02 12:09:00;;;;;;;13.63;8.63;;;;;;;;;;8214266;28;20025;-60
2023/10/02 12:13:02;;;;;;;16.10;9.15;;;;;;;;;;8216757;28;20030;-60
2023/10/02 12:17:02;;;;;;;17.07;9.80;;;;;;;;;;8216505;28;20041;-60
2023/10/02 12:21:08;;;;;;;16.08;9.48;;;;;;;;;;8217746;28;20277;-60
2023/10/02 12:25:11;;;;;;;16.60;10.10;;;;;;;;;;8223644;28;20033;-60
2023/10/02 12:29:11;;;;;;;17.85;10.23;;;;;;;;;;8223848;28;20037;-61
2023/10/02 12:33:14;;;;;;;19.08;11.20;;;;;;;;;;8226405;28;20038;-61
2023/10/02 12:37:17;;;;;;;;;;;;;;;;;;8227463;28;20630;-60
2023/10/02 12:41:19;;;;;;;20.58;11.20;;;;;;;;;;8227338;28;20601;-60
2023/10/02 12:45:19;;;;;;;19.10;11.23;;;;;;;;;;8224584;28;20048;-60
2023/10/02 12:49:22;;;;;;;20.85;11.13;;;;;;;;;;8224277;28;20061;-61
2023/10/02 12:53:23;;;;;;;17.98;10.98;;;;;;;;;;8225106;28;20031;-60
2023/10/02 12:57:23;;;;;;;23.35;12.25;;;;;;;;;;8225707;28;20033;-61
2023/10/02 13:01:24;;;;;;;20.83;11.70;;;;;;;;;;8225151;28;20046;-61
2023/10/02 13:05:25;;;;;;;21.20;9.90;;;;;;;;;;8226280;28;20400;-60
2023/10/02 13:09:27;;;;;;;15.35;9.10;;;;;;;;;;8224522;28;20816;-60
2023/10/02 13:13:27;;;;;;;13.00;8.35;;;;;;;;;;8226383;28;20033;-60
2023/10/02 13:17:28;;;;;;;16.15;9.35;;;;;;;;;;8223997;28;20836;-60
2023/10/02 13:21:28;;;;;;;15.23;9.20;;;;;;;;;;8225155;28;20433;-60
2023/10/02 13:25:29;;;;;;;18.15;8.57;;;;;;;;;;8224065;28;20712;-60
2023/10/02 13:29:29;;;;;;;16.97;8.63;;;;;;;;;;8222531;28;20152;-60
2023/10/02 13:33:30;;;;;;;15.98;8.85;;;;;;;;;;8222477;28;20085;-60
2023/10/02 13:37:34;;;;;;;18.17;8.50;;;;;;;;;;8226724;28;20660;-61
2023/10/02 13:41:34;;;;;;;19.02;8.88;;;;;;;;;;8223366;28;21000;-60
2023/10/02 13:45:35;;;;;;;16.17;9.03;;;;;;;;;;8223646;28;20133;-60
2023/10/02 13:49:35;;;;;;;18.25;8.85;;;;;;;;;;8223908;28;20288;-61
2023/10/02 13:53:36;;;;;;;19.20;8.77;;;;;;;;;;8222320;28;20037;-60
2023/10/02 13:57:36;;;;;;;15.95;9.05;;;;;;;;;;8222404;28;20021;-60
2023/10/02 14:01:37;;;;;;;15.15;8.95;;;;;;;;;;8221933;28;20145;-61
2023/10/02 14:05:39;;;;;;;14.85;8.98;;;;;;;;;;8223818;28;20025;-61
2023/10/02 14:09:39;;;;;;;18.90;9.82;;;;;;;;;;8223248;28;20037;-60
2023/10/02 14:13:39;;;;;;;17.48;8.90;;;;;;;;;;8217867;28;20034;-60
2023/10/02 14:17:40;;;;;;;21.80;9.30;;;;;;;;;;8217154;28;20076;-60
2023/10/02 14:21:40;;;;;;;19.88;9.00;;;;;;;;;;8221010;28;20756;-60
2023/10/02 14:25:41;;;;;;;19.88;9.57;;;;;;;;;;8223511;28;20017;-60
2023/10/02 14:29:41;;;;;;;17.08;9.02;;;;;;;;;;8223077;28;20026;-60
2023/10/02 14:33:43;;;;;;;19.47;9.17;;;;;;;;;;8223348;28;20038;-60
2023/10/02 14:37:44;;;;;;;21.42;9.20;;;;;;;;;;8223013;28;20026;-60
2023/10/02 14:41:44;;;;;;;22.75;9.13;;;;;;;;;;8222038;28;20105;-62
2023/10/02 14:45:44;;;;;;;16.20;9.33;;;;;;;;;;8219567;28;20037;-61
2023/10/02 14:49:45;;;;;;;17.48;9.25;;;;;;;;;;8222477;28;20538;-61
2023/10/02 14:53:45;;;;;;;16.15;9.13;;;;;;;;;;8221397;28;20545;-61
2023/10/02 14:57:47;;;;;;;17.20;8.38;;;;;;;;;;8223045;28;20115;-62
2023/10/02 15:01:48;;;;;;;18.47;9.67;;;;;;;;;;8220126;28;20042;-60
2023/10/02 15:05:48;;;;;;;18.27;9.68;;;;;;;;;;8222312;28;20017;-61
2023/10/02 15:09:48;;;;;;;19.67;9.48;;;;;;;;;;8222530;28;20041;-61
2023/10/02 15:13:49;;;;;;;18.73;9.45;;;;;;;;;;8218801;28;20155;-61
2023/10/02 15:17:50;;;;;;;17.13;9.30;;;;;;;;;;8219791;28;20426;-61
2023/10/02 15:21:50;;;;;;;17.70;9.40;;;;;;;;;;8219257;28;20041;-61
2023/10/02 15:25:53;;;;;;;20.88;9.48;;;;;;;;;;8222139;28;20030;-61
2023/10/02 15:29:54;;;;;;;17.15;9.85;;;;;;;;;;8221333;28;20026;-61
2023/10/02 15:33:55;;;;;;;19.25;9.30;;;;;;;;;;8222296;28;20038;-60
2023/10/02 15:37:55;;;;;;;21.20;9.60;;;;;;;;;;8223571;28;20072;-61
2023/10/02 15:41:56;;;;;;;17.83;9.23;;;;;;;;;;8219025;28;20030;-61
2023/10/02 15:45:58;;;;;;;18.20;9.25;;;;;;;;;;8226757;28;20034;-61
2023/10/02 15:49:59;;;;;;;19.13;9.35;;;;;;;;;;8220683;28;20026;-61
2023/10/02 15:54:00;;;;;;;18.95;9.32;;;;;;;;;;8223152;28;20095;-61
2023/10/02 15:58:01;;;;;;;17.17;9.98;;;;;;;;;;8220872;28;20025;-61
2023/10/02 16:02:01;;;;;;;20.52;9.68;;;;;;;;;;8216029;28;20558;-60
2023/10/02 16:06:02;;;;;;;14.83;9.50;;;;;;;;;;8222669;28;20530;-61
2023/10/02 16:10:06;;;;;;;20.60;9.52;;;;;;;;;;8219891;28;20583;-61
2023/10/02 16:14:06;;;;;;;14.40;9.05;;;;;;;;;;8220232;28;20030;-61
2023/10/02 16:18:08;;;;;;;19.63;9.93;;;;;;;;;;8220952;28;20053;-60
2023/10/02 16:22:09;;;;;;;24.27;13.20;;;;;;;;;;8218735;28;20033;-60
2023/10/02 16:26:13;;;;;;;19.00;10.43;;;;;;;;;;8216089;28;20078;-64
2023/10/02 16:30:14;;;;;;;19.40;9.98;;;;;;;;;;8218797;28;20041;-61
2023/10/02 16:34:14;;;;;;;19.05;9.93;;;;;;;;;;8222486;28;20018;-61
2023/10/02 16:38:15;;;;;;;19.08;9.70;;;;;;;;;;8222382;28;20915;-61
2023/10/02 16:42:15;;;;;;;28.48;16.02;;;;;;;;;;8221178;28;20022;-61
2023/10/02 16:46:16;;;;;;;37.90;22.35;;;;;;;;;;8217766;28;20625;-61
2023/10/02 16:50:17;;;;;;;36.65;21.60;;;;;;;;;;8223037;28;20141;-60
2023/10/02 16:54:17;;;;;;;29.95;17.55;;;;;;;;;;8220855;28;20483;-60
2023/10/02 16:58:17;;;;;;;24.42;15.10;;;;;;;;;;8220544;28;20031;-61
2023/10/02 17:02:17;;;;;;;20.30;12.93;;;;;;;;;;8218219;28;20058;-60
2023/10/02 17:06:18;;;;;;;19.60;11.68;;;;;;;;;;8213957;28;20030;-62
2023/10/02 17:10:20;;;;;;;21.83;11.00;;;;;;;;;;8221401;28;20031;-61
2023/10/02 17:14:21;;;;;;;17.30;10.00;;;;;;;;;;8222485;28;20100;-61
2023/10/02 17:18:22;;;;;;;16.92;9.65;;;;;;;;;;8222208;28;20042;-61
2023/10/02 17:22:24;;;;;;;16.08;9.43;;;;;;;;;;8220942;28;20226;-61
2023/10/02 17:26:25;;;;;;;17.23;9.35;;;;;;;;;;8221530;28;20056;-62
2023/10/02 17:30:25;;;;;;;17.38;8.95;;;;;;;;;;8222904;28;20680;-61
2023/10/02 17:34:26;;;;;;;20.48;9.15;;;;;;;;;;8222173;28;20295;-62
2023/10/02 17:38:26;;;;;;;15.82;8.52;;;;;;;;;;8222588;28;20065;-62
2023/10/02 17:42:26;;;;;;;14.55;8.38;;;;;;;;;;8224533;28;20128;-62
2023/10/02 17:46:27;;;;;;;15.55;7.97;;;;;;;;;;8223142;28;20406;-62
2023/10/02 17:50:27;;;;;;;13.67;8.10;;;;;;;;;;8222161;28;20058;-62
2023/10/02 17:54:27;;;;;;;20.70;8.60;;;;;;;;;;8224479;28;20030;-62
2023/10/02 17:58:27;;;;;;;14.77;8.20;;;;;;;;;;8223273;28;20908;-61
2023/10/02 18:02:28;;;;;;;15.30;8.43;;;;;;;;;;8222165;28;20277;-62
2023/10/02 18:06:28;;;;;;;16.40;8.80;;;;;;;;;;8224596;28;20030;-62
2023/10/02 18:10:29;;;;;;;14.30;8.35;;;;;;;;;;8222520;28;20077;-62
2023/10/02 18:14:30;;;;;;;16.35;8.45;;;;;;;;;;8222000;28;20063;-61
2023/10/02 18:18:30;;;;;;;18.00;8.70;;;;;;;;;;8224613;28;20057;-61
2023/10/02 18:22:31;;;;;;;16.77;10.10;;;;;;;;;;8223596;28;20088;-61
2023/10/02 18:26:33;;;;;;;28.48;13.43;;;;;;;;;;8222353;28;20053;-61
2023/10/02 18:30:34;;;;;;;21.23;12.52;;;;;;;;;;8224085;28;20037;-60
2023/10/02 18:34:34;;;;;;;24.58;13.18;;;;;;;;;;8224043;28;20092;-60
2023/10/02 18:38:36;;;;;;;21.02;12.07;;;;;;;;;;8222277;28;20068;-61
2023/10/02 18:42:36;;;;;;;23.42;11.90;;;;;;;;;;8223000;28;20053;-61
2023/10/02 18:46:37;;;;;;;25.35;13.40;;;;;;;;;;8219705;28;20034;-61
2023/10/02 18:50:37;;;;;;;16.77;10.30;;;;;;;;;;8222314;28;20034;-62
2023/10/02 18:54:38;;;;;;;18.02;9.40;;;;;;;;;;8221950;28;20036;-61
2023/10/02 18:58:38;;;;;;;19.05;9.63;;;;;;;;;;8220690;28;20856;-62
2023/10/02 19:02:38;;;;;;;19.85;9.85;;;;;;;;;;8220650;28;20045;-62
2023/10/02 19:06:39;;;;;;;23.45;10.30;;;;;;;;;;8220828;28;20067;-61
2023/10/02 19:10:42;;;;;;;20.40;10.77;;;;;;;;;;8221329;28;20053;-62
2023/10/02 19:14:42;;;;;;;22.75;10.80;;;;;;;;;;8220881;28;20030;-61
2023/10/02 19:18:43;;;;;;;20.90;11.15;;;;;;;;;;8220822;28;21041;-62
2023/10/02 19:22:44;;;;;;;22.83;11.00;;;;;;;;;;8220448;28;20378;-61
2023/10/02 19:26:46;;;;;;;22.45;11.95;;;;;;;;;;8219716;28;20171;-61
2023/10/02 19:30:48;;;;;;;23.13;11.17;;;;;;;;;;8221726;28;20038;-62
2023/10/02 19:34:50;;;;;;;21.85;11.00;;;;;;;;;;8220482;28;20021;-61
2023/10/02 19:38:50;;;;;;;20.40;10.80;;;;;;;;;;8224233;28;20305;-61
2023/10/02 19:42:50;;;;;;;21.70;10.32;;;;;;;;;;8222784;28;20022;-61
2023/10/02 19:46:50;;;;;;;20.42;11.15;;;;;;;;;;8218170;28;20034;-62
2023/10/02 19:50:53;;;;;;;23.47;10.83;;;;;;;;;;8219827;28;20026;-61
2023/10/02 19:54:54;;;;;;;22.13;11.32;;;;;;;;;;8218404;28;21055;-61
2023/10/02 19:58:54;;;;;;;23.50;11.98;;;;;;;;;;8223109;28;20709;-61
2023/10/02 20:02:56;;;;;;;24.38;11.77;;;;;;;;;;8216891;28;20030;-61
2023/10/02 20:06:56;;;;;;;24.33;12.15;;;;;;;;;;8223931;28;20538;-61
2023/10/02 20:10:56;;;;;;;26.67;13.05;;;;;;;;;;8218641;28;20053;-61
2023/10/02 20:14:57;;;;;;;23.60;12.82;;;;;;;;;;8216499;28;20050;-61
2023/10/02 20:18:57;;;;;;;28.85;13.13;;;;;;;;;;8218863;28;20130;-62
2023/10/02 20:22:58;;;;;;;25.17;12.60;;;;;;;;;;8217243;28;20113;-61
2023/10/02 20:26:58;;;;;;;27.70;13.55;;;;;;;;;;8217223;28;20924;-61
2023/10/02 20:30:58;;;;;;;31.80;13.48;;;;;;;;;;8217765;28;20846;-62
2023/10/02 20:34:58;;;;;;;28.88;13.30;;;;;;;;;;8216529;28;20034;-62
2023/10/02 20:38:59;;;;;;;30.38;14.02;;;;;;;;;;8216099;28;20853;-62
2023/10/02 20:43:01;;;;;;;30.65;14.80;;;;;;;;;;8217846;28;20022;-63
2023/10/02 20:47:01;;;;;;;32.72;15.43;;;;;;;;;;8222039;28;20170;-67
2023/10/02 20:51:02;;;;;;;33.13;15.95;;;;;;;;;;8224095;28;20121;-61
2023/10/02 20:55:03;;;;;;;32.03;16.00;;;;;;;;;;8227508;28;20026;-62
2023/10/02 20:59:11;;;;;;;34.88;17.23;;;;;;;;;;8226448;28;20022;-62
2023/10/02 21:03:12;;;;;;;32.05;15.52;;;;;;;;;;8225813;28;20121;-61
2023/10/02 21:07:13;;;;;;;34.08;16.02;;;;;;;;;;8223024;28;20132;-61
2023/10/02 21:11:14;;;;;;;31.88;16.60;;;;;;;;;;8221894;28;20034;-61
2023/10/02 21:15:14;;;;;;;35.42;16.00;;;;;;;;;;8217912;28;20041;-62
2023/10/02 21:19:14;;;;;;;37.08;16.92;;;;;;;;;;8222352;28;20788;-61
2023/10/02 21:23:15;;;;;;;32.08;16.25;;;;;;;;;;8222172;28;20029;-62
2023/10/02 21:27:16;;;;;;;34.88;16.27;;;;;;;;;;8225345;28;20032;-62
2023/10/02 21:31:16;;;;;;;31.70;16.00;;;;;;;;;;8222155;28;20034;-61
2023/10/02 21:35:16;;;;;;;28.48;15.38;;;;;;;;;;8221051;28;20058;-61
2023/10/02 21:39:18;;;;;;;34.97;16.47;;;;;;;;;;8221615;28;20143;-61
2023/10/02 21:43:18;;;;;;;30.38;15.70;;;;;;;;;;8222212;28;20026;-61
2023/10/02 21:47:20;;;;;;;32.40;15.95;;;;;;;;;;8222041;28;20093;-61
2023/10/02 21:51:20;;;;;;;34.83;16.70;;;;;;;;;;8220853;28;20129;-62
2023/10/02 21:55:23;;;;;;;34.00;16.90;;;;;;;;;;8219916;28;20032;-61
2023/10/02 21:59:24;;;;;;;31.58;15.80;;;;;;;;;;8224214;28;20820;-61
2023/10/02 22:03:24;;;;;;;34.90;16.48;;;;;;;;;;8217256;28;20034;-61
2023/10/02 22:07:25;;;;;;;33.15;16.75;;;;;;;;;;8219173;28;20026;-60
2023/10/02 22:11:25;;;;;;;34.90;17.35;;;;;;;;;;8216096;28;20104;-61
2023/10/02 22:15:28;;;;;;;35.20;16.80;;;;;;;;;;8211774;28;20474;-60
2023/10/02 22:19:29;;;;;;;;;;;;;;;;;;8214267;28;20022;-60
2023/10/02 22:23:33;;;;;;;36.97;17.35;;;;;;;;;;8212360;28;19924;-61
2023/10/02 22:27:34;;;;;;;37.15;17.20;;;;;;;;;;8217600;28;20060;-60
2023/10/02 22:31:36;;;;;;;37.30;18.02;;;;;;;;;;8213031;28;20121;-60
2023/10/02 22:35:36;;;;;;;34.53;16.60;;;;;;;;;;8216403;28;20026;-60
2023/10/02 22:39:38;;;;;;;34.40;16.05;;;;;;;;;;8214640;28;20113;-60
2023/10/02 22:43:39;;;;;;;33.50;17.17;;;;;;;;;;8215985;28;20889;-61
2023/10/02 22:47:39;;;;;;;31.60;16.15;;;;;;;;;;8217792;28;20064;-61
2023/10/02 22:51:39;;;;;;;35.42;16.77;;;;;;;;;;8216561;28;20033;-61
2023/10/02 22:55:42;;;;;;;31.80;15.77;;;;;;;;;;8217086;28;20438;-66
2023/10/02 22:59:42;;;;;;;33.17;16.25;;;;;;;;;;8216204;28;20033;-60
2023/10/02 23:03:42;;;;;;;32.90;15.88;;;;;;;;;;8215271;28;20033;-60
2023/10/02 23:07:46;;;;;;;34.87;16.23;;;;;;;;;;8213692;28;20088;-60
2023/10/02 23:11:46;;;;;;;29.40;14.43;;;;;;;;;;8215104;28;20280;-60
2023/10/02 23:15:47;;;;;;;29.65;13.73;;;;;;;;;;8215131;28;20034;-61
2023/10/02 23:19:47;;;;;;;26.67;13.20;;;;;;;;;;8214609;28;20029;-61
2023/10/02 23:23:48;;;;;;;25.13;12.77;;;;;;;;;;8213120;28;20320;-61
2023/10/02 23:27:51;;;;;;;24.13;12.68;;;;;;;;;;8214680;28;20038;-60
2023/10/02 23:31:51;;;;;;;25.92;12.07;;;;;;;;;;8208270;28;20426;-60
2023/10/02 23:35:52;;;;;;;22.50;10.90;;;;;;;;;;8216385;28;20044;-60
2023/10/02 23:39:53;;;;;;;21.30;11.00;;;;;;;;;;8214136;28;20045;-60
2023/10/02 23:43:53;;;;;;;22.58;10.43;;;;;;;;;;8211940;28;20014;-60
2023/10/02 23:48:04;;;;;;;18.67;10.13;;;;;;;;;;8213984;28;20030;-61
2023/10/02 23:52:05;;;;;;;16.05;9.45;;;;;;;;;;8212254;28;22024;-60
2023/10/02 23:56:06;;;;;;;18.30;9.10;;;;;;;;;;8213873;28;20057;-61
